sensor_id;sensor_type;location;lat;lon;timestamp;pressure;altitude;pressure_sealevel;temperature;humidity
4814;BME280;15375;48.540;9.268;2024-01-07T00:00:28;96676.13;;;4.31;100.00
4814;BME280;15375;48.540;9.268;2024-01-07T00:02:55;96666.91;;;4.25;100.00
4814;BME280;15375;48.540;9.268;2024-01-07T00:05:20;96674.22;;;4.31;100.00
4814;BME280;15375;48.540;9.268;2024-01-07T00:07:45;96662.66;;;4.27;100.00
4814;BME280;15375;48.540;9.268;2024-01-07T00:10:11;96683.44;;;4.34;100.00
4814;BME280;15375;48.540;9.268;2024-01-07T00:12:36;96683.84;;;4.29;100.00
4814;BME280;15375;48.540;9.268;2024-01-07T00:15:02;96599.66;;;3.72;100.00
4814;BME280;15375;48.540;9.268;2024-01-07T00:17:27;96664.25;;;4.11;100.00
4814;BME280;15375;48.540;9.268;2024-01-07T00:19:53;96661.97;;;4.09;100.00
4814;BME280;15375;48.540;9.268;2024-01-07T00:22:18;96685.03;;;4.24;100.00
4814;BME280;15375;48.540;9.268;2024-01-07T00:24:43;96667.31;;;4.16;100.00
4814;BME280;15375;48.540;9.268;2024-01-07T00:27:09;96680.03;;;4.19;100.00
4814;BME280;15375;48.540;9.268;2024-01-07T00:29:34;96701.19;;;4.31;100.00
4814;BME280;15375;48.540;9.268;2024-01-07T00:32:01;96648.13;;;3.93;100.00
4814;BME280;15375;48.540;9.268;2024-01-07T00:34:26;96698.13;;;4.26;100.00
4814;BME280;15375;48.540;9.268;2024-01-07T00:36:52;96693.09;;;4.31;100.00
4814;BME280;15375;48.540;9.268;2024-01-07T00:39:17;96696.97;;;4.30;100.00
4814;BME280;15375;48.540;9.268;2024-01-07T00:41:42;96677.72;;;4.21;100.00
4814;BME280;15375;48.540;9.268;2024-01-07T00:44:08;96695.03;;;4.34;100.00
4814;BME280;15375;48.540;9.268;2024-01-07T00:46:33;96693.09;;;4.31;100.00
4814;BME280;15375;48.540;9.268;2024-01-07T00:48:59;96683.13;;;4.21;100.00
4814;BME280;15375;48.540;9.268;2024-01-07T00:51:24;96658.13;;;4.03;100.00
4814;BME280;15375;48.540;9.268;2024-01-07T00:53:49;96650.41;;;4.05;100.00
4814;BME280;15375;48.540;9.268;2024-01-07T00:56:15;96663.09;;;4.15;100.00
4814;BME280;15375;48.540;9.268;2024-01-07T00:58:40;96676.53;;;4.26;100.00
4814;BME280;15375;48.540;9.268;2024-01-07T01:01:05;96663.47;;;4.14;100.00
4814;BME280;15375;48.540;9.268;2024-01-07T01:03:31;96683.84;;;4.29;100.00
4814;BME280;15375;48.540;9.268;2024-01-07T01:05:56;96683.50;;;4.23;100.00
4814;BME280;15375;48.540;9.268;2024-01-07T01:08:22;96687.38;;;4.22;100.00
4814;BME280;15375;48.540;9.268;2024-01-07T01:10:48;96676.94;;;4.24;100.00
4814;BME280;15375;48.540;9.268;2024-01-07T01:13:13;96689.59;;;4.41;100.00
4814;BME280;15375;48.540;9.268;2024-01-07T01:15:39;96695.00;;;4.45;100.00
4814;BME280;15375;48.540;9.268;2024-01-07T01:18:05;96686.16;;;4.37;100.00
4814;BME280;15375;48.540;9.268;2024-01-07T01:20:30;96668.84;;;4.24;100.00
4814;BME280;15375;48.540;9.268;2024-01-07T01:22:56;96671.94;;;4.16;100.00
4814;BME280;15375;48.540;9.268;2024-01-07T01:25:21;96683.13;;;4.25;100.00
4814;BME280;15375;48.540;9.268;2024-01-07T01:27:46;96716.63;;;4.38;100.00
4814;BME280;15375;48.540;9.268;2024-01-07T01:30:12;96690.03;;;4.26;100.00
4814;BME280;15375;48.540;9.268;2024-01-07T01:32:38;96702.38;;;4.23;100.00
4814;BME280;15375;48.540;9.268;2024-01-07T01:35:05;96708.59;;;4.20;100.00
4814;BME280;15375;48.540;9.268;2024-01-07T01:37:31;96675.50;;;3.95;100.00
4814;BME280;15375;48.540;9.268;2024-01-07T01:39:58;96690.50;;;4.03;100.00
4814;BME280;15375;48.540;9.268;2024-01-07T01:42:23;96667.03;;;3.86;100.00
4814;BME280;15375;48.540;9.268;2024-01-07T01:44:49;96690.50;;;4.03;100.00
4814;BME280;15375;48.540;9.268;2024-01-07T01:47:15;96682.44;;;3.93;100.00
4814;BME280;15375;48.540;9.268;2024-01-07T01:49:41;96716.31;;;4.15;100.00
4814;BME280;15375;48.540;9.268;2024-01-07T01:52:07;96706.28;;;4.08;100.00
4814;BME280;15375;48.540;9.268;2024-01-07T01:54:34;96691.66;;;3.99;100.00
4814;BME280;15375;48.540;9.268;2024-01-07T01:56:59;96662.03;;;3.81;100.00
4814;BME280;15375;48.540;9.268;2024-01-07T01:59:25;96688.97;;;3.99;100.00
4814;BME280;15375;48.540;9.268;2024-01-07T02:01:50;96685.13;;;3.96;100.00
4814;BME280;15375;48.540;9.268;2024-01-07T02:04:16;96636.69;;;3.57;100.00
4814;BME280;15375;48.540;9.268;2024-01-07T02:06:42;96694.38;;;4.02;100.00
4814;BME280;15375;48.540;9.268;2024-01-07T02:09:07;96686.66;;;3.97;100.00
4814;BME280;15375;48.540;9.268;2024-01-07T02:11:33;96706.28;;;4.12;100.00
4814;BME280;15375;48.540;9.268;2024-01-07T02:13:58;96707.06;;;4.09;100.00
4814;BME280;15375;48.540;9.268;2024-01-07T02:16:24;96688.97;;;3.99;100.00
4814;BME280;15375;48.540;9.268;2024-01-07T02:18:49;96713.97;;;4.17;100.00
4814;BME280;15375;48.540;9.268;2024-01-07T02:21:15;96688.19;;;3.98;100.00
4814;BME280;15375;48.540;9.268;2024-01-07T02:23:40;96678.56;;;3.97;100.00
4814;BME280;15375;48.540;9.268;2024-01-07T02:26:06;96684.34;;;3.96;100.00
4814;BME280;15375;48.540;9.268;2024-01-07T02:28:32;96671.25;;;3.91;100.00
4814;BME280;15375;48.540;9.268;2024-01-07T02:30:57;96722.84;;;4.17;100.00
4814;BME280;15375;48.540;9.268;2024-01-07T02:33:23;96600.88;;;3.36;100.00
4814;BME280;15375;48.540;9.268;2024-01-07T02:35:48;96648.19;;;3.68;100.00
4814;BME280;15375;48.540;9.268;2024-01-07T02:38:14;96669.00;;;3.75;100.00
4814;BME280;15375;48.540;9.268;2024-01-07T02:40:39;96682.84;;;3.84;100.00
4814;BME280;15375;48.540;9.268;2024-01-07T02:43:04;96623.22;;;3.47;100.00
4814;BME280;15375;48.540;9.268;2024-01-07T02:45:30;96576.69;;;3.00;100.00
4814;BME280;15375;48.540;9.268;2024-01-07T02:47:55;96689.00;;;3.88;100.00
4814;BME280;15375;48.540;9.268;2024-01-07T02:50:21;96721.31;;;4.06;100.00
4814;BME280;15375;48.540;9.268;2024-01-07T02:52:47;96707.88;;;3.95;100.00
4814;BME280;15375;48.540;9.268;2024-01-07T02:55:13;96714.78;;;4.03;100.00
4814;BME280;15375;48.540;9.268;2024-01-07T02:57:38;96682.09;;;3.80;100.00
4814;BME280;15375;48.540;9.268;2024-01-07T03:00:04;96717.06;;;4.08;100.00
4814;BME280;15375;48.540;9.268;2024-01-07T03:02:30;96705.56;;;3.97;100.00
4814;BME280;15375;48.540;9.268;2024-01-07T03:04:55;96689.00;;;3.81;100.00
4814;BME280;15375;48.540;9.268;2024-01-07T03:07:21;96683.25;;;3.79;100.00
4814;BME280;15375;48.540;9.268;2024-01-07T03:09:48;96720.94;;;4.07;100.00
4814;BME280;15375;48.540;9.268;2024-01-07T03:12:15;96723.66;;;4.07;100.00
4814;BME280;15375;48.540;9.268;2024-01-07T03:14:41;96617.84;;;3.36;100.00
4814;BME280;15375;48.540;9.268;2024-01-07T03:17:06;96685.53;;;3.84;100.00
4814;BME280;15375;48.540;9.268;2024-01-07T03:19:32;96716.72;;;3.96;100.00
4814;BME280;15375;48.540;9.268;2024-01-07T03:21:58;96709.81;;;3.88;100.00
4814;BME280;15375;48.540;9.268;2024-01-07T03:24:23;96722.50;;;3.91;100.00
4814;BME280;15375;48.540;9.268;2024-01-07T03:26:48;96707.50;;;3.90;100.00
4814;BME280;15375;48.540;9.268;2024-01-07T03:29:14;96679.00;;;3.71;100.00
4814;BME280;15375;48.540;9.268;2024-01-07T03:31:39;96710.19;;;4.00;100.00
4814;BME280;15375;48.540;9.268;2024-01-07T03:34:04;96693.63;;;3.91;100.00
4814;BME280;15375;48.540;9.268;2024-01-07T03:36:30;96708.22;;;4.01;100.00
4814;BME280;15375;48.540;9.268;2024-01-07T03:38:55;96720.19;;;4.07;100.00
4814;BME280;15375;48.540;9.268;2024-01-07T03:41:21;96733.63;;;4.21;100.00
4814;BME280;15375;48.540;9.268;2024-01-07T03:43:47;96738.28;;;4.20;100.00
4814;BME280;15375;48.540;9.268;2024-01-07T03:46:12;96742.50;;;4.21;100.00
4814;BME280;15375;48.540;9.268;2024-01-07T03:48:38;96739.03;;;4.24;100.00
4814;BME280;15375;48.540;9.268;2024-01-07T03:51:03;96717.84;;;4.09;100.00
4814;BME280;15375;48.540;9.268;2024-01-07T03:53:29;96703.59;;;4.01;100.00
4814;BME280;15375;48.540;9.268;2024-01-07T03:55:54;96735.94;;;4.19;100.00
4814;BME280;15375;48.540;9.268;2024-01-07T03:58:19;96704.38;;;3.98;100.00
4814;BME280;15375;48.540;9.268;2024-01-07T04:00:45;96710.94;;;3.97;100.00
4814;BME280;15375;48.540;9.268;2024-01-07T04:03:10;96725.97;;;4.05;100.00
4814;BME280;15375;48.540;9.268;2024-01-07T04:05:35;96752.94;;;4.12;100.00
4814;BME280;15375;48.540;9.268;2024-01-07T04:08:02;96722.13;;;3.99;100.00
4814;BME280;15375;48.540;9.268;2024-01-07T04:10:27;96712.50;;;3.91;100.00
4814;BME280;15375;48.540;9.268;2024-01-07T04:12:53;96714.84;;;3.82;100.00
4814;BME280;15375;48.540;9.268;2024-01-07T04:15:18;96699.03;;;3.73;100.00
4814;BME280;15375;48.540;9.268;2024-01-07T04:17:43;96719.84;;;3.87;100.00
4814;BME280;15375;48.540;9.268;2024-01-07T04:20:12;96744.88;;;4.05;100.00
4814;BME280;15375;48.540;9.268;2024-01-07T04:22:38;96726.38;;;3.90;100.00
4814;BME280;15375;48.540;9.268;2024-01-07T04:25:04;96741.03;;;3.92;100.00
4814;BME280;15375;48.540;9.268;2024-01-07T04:27:33;96740.25;;;3.95;100.00
4814;BME280;15375;48.540;9.268;2024-01-07T04:29:58;96750.25;;;4.02;100.00
4814;BME280;15375;48.540;9.268;2024-01-07T04:32:23;96662.88;;;3.43;100.00
4814;BME280;15375;48.540;9.268;2024-01-07T04:34:49;96726.00;;;3.77;100.00
4814;BME280;15375;48.540;9.268;2024-01-07T04:37:15;96730.22;;;3.88;100.00
4814;BME280;15375;48.540;9.268;2024-01-07T04:39:40;96752.16;;;4.08;100.00
4814;BME280;15375;48.540;9.268;2024-01-07T04:42:06;96710.22;;;3.82;100.00
4814;BME280;15375;48.540;9.268;2024-01-07T04:44:31;96762.19;;;4.11;100.00
4814;BME280;15375;48.540;9.268;2024-01-07T04:46:57;96727.53;;;3.88;100.00
4814;BME280;15375;48.540;9.268;2024-01-07T04:49:22;96743.72;;;3.88;100.00
4814;BME280;15375;48.540;9.268;2024-01-07T04:51:47;96770.66;;;4.06;100.00
4814;BME280;15375;48.540;9.268;2024-01-07T04:54:13;96746.44;;;3.85;100.00
4814;BME280;15375;48.540;9.268;2024-01-07T04:56:38;96715.22;;;3.63;100.00
4814;BME280;15375;48.540;9.268;2024-01-07T04:59:04;96739.09;;;3.68;100.00
4814;BME280;15375;48.540;9.268;2024-01-07T05:01:29;96739.88;;;3.75;100.00
4814;BME280;15375;48.540;9.268;2024-01-07T05:03:55;96714.47;;;3.48;100.00
4814;BME280;15375;48.540;9.268;2024-01-07T05:06:20;96712.16;;;3.47;100.00
4814;BME280;15375;48.540;9.268;2024-01-07T05:08:45;96749.13;;;3.78;100.00
4814;BME280;15375;48.540;9.268;2024-01-07T05:11:11;96739.88;;;3.58;100.00
4814;BME280;15375;48.540;9.268;2024-01-07T05:13:36;96779.16;;;3.83;100.00
4814;BME280;15375;48.540;9.268;2024-01-07T05:16:02;96719.09;;;3.41;100.00
4814;BME280;15375;48.540;9.268;2024-01-07T05:18:28;96749.91;;;3.47;100.00
4814;BME280;15375;48.540;9.268;2024-01-07T05:20:53;96795.34;;;3.73;100.00
4814;BME280;15375;48.540;9.268;2024-01-07T05:23:19;96782.66;;;3.70;100.00
4814;BME280;15375;48.540;9.268;2024-01-07T05:25:45;96768.00;;;3.57;100.00
4814;BME280;15375;48.540;9.268;2024-01-07T05:28:11;96797.66;;;3.64;100.00
4814;BME280;15375;48.540;9.268;2024-01-07T05:30:37;96796.91;;;3.67;100.00
4814;BME280;15375;48.540;9.268;2024-01-07T05:33:03;96774.16;;;3.43;100.00
4814;BME280;15375;48.540;9.268;2024-01-07T05:35:28;96781.47;;;3.46;100.00
4814;BME280;15375;48.540;9.268;2024-01-07T05:37:54;96713.69;;;3.02;100.00
4814;BME280;15375;48.540;9.268;2024-01-07T05:40:19;96773.38;;;3.43;100.00
4814;BME280;15375;48.540;9.268;2024-01-07T05:42:44;96785.31;;;3.38;100.00
4814;BME280;15375;48.540;9.268;2024-01-07T05:45:10;96798.06;;;3.52;100.00
4814;BME280;15375;48.540;9.268;2024-01-07T05:47:35;96793.00;;;3.33;100.00
4814;BME280;15375;48.540;9.268;2024-01-07T05:50:01;96796.13;;;3.35;100.00
4814;BME280;15375;48.540;9.268;2024-01-07T05:52:27;96776.84;;;3.22;100.00
4814;BME280;15375;48.540;9.268;2024-01-07T05:54:52;96818.09;;;3.47;100.00
4814;BME280;15375;48.540;9.268;2024-01-07T05:57:18;96777.22;;;3.24;100.00
4814;BME280;15375;48.540;9.268;2024-01-07T05:59:44;96808.81;;;3.41;100.00
4814;BME280;15375;48.540;9.268;2024-01-07T06:02:09;96810.34;;;3.46;100.00
4814;BME280;15375;48.540;9.268;2024-01-07T06:04:37;96819.25;;;3.57;100.00
4814;BME280;15375;48.540;9.268;2024-01-07T06:07:02;96816.53;;;3.46;100.00
4814;BME280;15375;48.540;9.268;2024-01-07T06:09:28;96780.69;;;3.25;100.00
4814;BME280;15375;48.540;9.268;2024-01-07T06:11:53;96817.31;;;3.47;100.00
4814;BME280;15375;48.540;9.268;2024-01-07T06:14:18;96795.31;;;3.27;100.00
4814;BME280;15375;48.540;9.268;2024-01-07T06:16:44;96796.81;;;3.17;100.00
4814;BME280;15375;48.540;9.268;2024-01-07T06:19:09;96829.22;;;3.39;100.00
4814;BME280;15375;48.540;9.268;2024-01-07T06:21:34;96745.19;;;2.87;100.00
4814;BME280;15375;48.540;9.268;2024-01-07T06:24:00;96834.25;;;3.51;100.00
4814;BME280;15375;48.540;9.268;2024-01-07T06:26:25;96807.25;;;3.40;100.00
4814;BME280;15375;48.540;9.268;2024-01-07T06:28:51;96816.13;;;3.34;100.00
4814;BME280;15375;48.540;9.268;2024-01-07T06:31:16;96818.81;;;3.34;100.00
4814;BME280;15375;48.540;9.268;2024-01-07T06:33:41;96807.59;;;3.17;100.00
4814;BME280;15375;48.540;9.268;2024-01-07T06:36:08;96845.41;;;3.39;100.00
4814;BME280;15375;48.540;9.268;2024-01-07T06:38:33;96821.09;;;3.28;100.00
4814;BME280;15375;48.540;9.268;2024-01-07T06:40:59;96791.41;;;2.96;100.00
4814;BME280;15375;48.540;9.268;2024-01-07T06:43:29;96824.56;;;3.21;100.00
4814;BME280;15375;48.540;9.268;2024-01-07T06:45:55;96854.25;;;3.39;100.00
4814;BME280;15375;48.540;9.268;2024-01-07T06:48:21;96821.47;;;3.16;100.00
4814;BME280;15375;48.540;9.268;2024-01-07T06:50:46;96849.25;;;3.41;100.00
4814;BME280;15375;48.540;9.268;2024-01-07T06:53:11;96809.50;;;3.10;100.00
4814;BME280;15375;48.540;9.268;2024-01-07T06:55:37;96827.63;;;3.16;100.00
4814;BME280;15375;48.540;9.268;2024-01-07T06:58:02;96843.03;;;3.19;100.00
4814;BME280;15375;48.540;9.268;2024-01-07T07:00:28;96795.97;;;2.85;100.00
4814;BME280;15375;48.540;9.268;2024-01-07T07:02:53;96833.00;;;3.06;100.00
4814;BME280;15375;48.540;9.268;2024-01-07T07:05:18;96866.94;;;3.35;100.00
4814;BME280;15375;48.540;9.268;2024-01-07T07:07:44;96866.91;;;3.28;100.00
4814;BME280;15375;48.540;9.268;2024-01-07T07:10:10;96848.81;;;3.25;100.00
4814;BME280;15375;48.540;9.268;2024-01-07T07:12:36;96858.44;;;3.22;100.00
4814;BME280;15375;48.540;9.268;2024-01-07T07:15:01;96799.78;;;2.77;100.00
4814;BME280;15375;48.540;9.268;2024-01-07T07:17:26;96890.03;;;3.33;100.00
4814;BME280;15375;48.540;9.268;2024-01-07T07:19:52;96860.72;;;3.13;100.00
4814;BME280;15375;48.540;9.268;2024-01-07T07:22:17;96865.75;;;3.18;100.00
4814;BME280;15375;48.540;9.268;2024-01-07T07:24:42;96829.84;;;2.90;100.00
4814;BME280;15375;48.540;9.268;2024-01-07T07:27:08;96894.63;;;3.25;100.00
4814;BME280;15375;48.540;9.268;2024-01-07T07:29:33;96847.56;;;2.94;100.00
4814;BME280;15375;48.540;9.268;2024-01-07T07:31:59;96876.88;;;3.13;100.00
4814;BME280;15375;48.540;9.268;2024-01-07T07:34:24;96907.38;;;3.39;100.00
4814;BME280;15375;48.540;9.268;2024-01-07T07:36:49;96912.38;;;3.33;100.00
4814;BME280;15375;48.540;9.268;2024-01-07T07:39:15;96871.50;;;3.13;100.00
4814;BME280;15375;48.540;9.268;2024-01-07T07:41:40;96910.44;;;3.34;100.00
4814;BME280;15375;48.540;9.268;2024-01-07T07:44:06;96876.47;;;3.04;100.00
4814;BME280;15375;48.540;9.268;2024-01-07T07:46:32;96881.50;;;3.09;100.00
4814;BME280;15375;48.540;9.268;2024-01-07T07:48:57;96880.72;;;3.09;100.00
4814;BME280;15375;48.540;9.268;2024-01-07T07:51:23;96858.75;;;2.96;100.00
4814;BME280;15375;48.540;9.268;2024-01-07T07:53:48;96909.69;;;3.30;100.00
4814;BME280;15375;48.540;9.268;2024-01-07T07:56:14;96890.34;;;3.13;100.00
4814;BME280;15375;48.540;9.268;2024-01-07T07:58:39;96913.16;;;3.34;100.00
4814;BME280;15375;48.540;9.268;2024-01-07T08:01:04;96857.56;;;2.94;100.00
4814;BME280;15375;48.540;9.268;2024-01-07T08:03:30;96883.44;;;3.16;100.00
4814;BME280;15375;48.540;9.268;2024-01-07T08:05:57;96900.38;;;3.16;100.00
4814;BME280;15375;48.540;9.268;2024-01-07T08:08:22;96902.75;;;3.29;100.00
4814;BME280;15375;48.540;9.268;2024-01-07T08:10:47;96920.84;;;3.32;100.00
4814;BME280;15375;48.540;9.268;2024-01-07T08:13:13;96918.91;;;3.29;100.00
4814;BME280;15375;48.540;9.268;2024-01-07T08:15:39;96906.94;;;3.22;100.00
4814;BME280;15375;48.540;9.268;2024-01-07T08:18:04;96914.28;;;3.33;100.00
4814;BME280;15375;48.540;9.268;2024-01-07T08:20:30;96928.94;;;3.39;100.00
4814;BME280;15375;48.540;9.268;2024-01-07T08:22:56;96852.91;;;2.87;100.00
4814;BME280;15375;48.540;9.268;2024-01-07T08:25:21;96932.78;;;3.34;100.00
4814;BME280;15375;48.540;9.268;2024-01-07T08:27:47;96937.78;;;3.36;100.00
4814;BME280;15375;48.540;9.268;2024-01-07T08:30:13;96921.94;;;3.16;100.00
4814;BME280;15375;48.540;9.268;2024-01-07T08:32:39;96901.47;;;3.05;100.00
4814;BME280;15375;48.540;9.268;2024-01-07T08:35:04;96926.91;;;3.11;100.00
4814;BME280;15375;48.540;9.268;2024-01-07T08:37:30;96904.16;;;3.01;100.00
4814;BME280;15375;48.540;9.268;2024-01-07T08:39:55;96947.41;;;3.30;100.00
4814;BME280;15375;48.540;9.268;2024-01-07T08:42:21;96940.78;;;3.09;100.00
4814;BME280;15375;48.540;9.268;2024-01-07T08:44:46;96957.38;;;3.26;100.00
4814;BME280;15375;48.540;9.268;2024-01-07T08:47:12;96916.09;;;3.00;100.00
4814;BME280;15375;48.540;9.268;2024-01-07T08:49:38;96964.16;;;2.95;100.00
4814;BME280;15375;48.540;9.268;2024-01-07T08:52:04;96972.66;;;3.00;100.00
4814;BME280;15375;48.540;9.268;2024-01-07T08:54:29;96933.69;;;2.80;100.00
4814;BME280;15375;48.540;9.268;2024-01-07T08:56:55;96935.19;;;2.78;100.00
4814;BME280;15375;48.540;9.268;2024-01-07T08:59:20;96967.56;;;2.85;100.00
4814;BME280;15375;48.540;9.268;2024-01-07T09:01:45;96987.66;;;2.94;100.00
4814;BME280;15375;48.540;9.268;2024-01-07T09:04:11;96932.78;;;2.58;100.00
4814;BME280;15375;48.540;9.268;2024-01-07T09:06:37;96946.22;;;2.55;100.00
4814;BME280;15375;48.540;9.268;2024-01-07T09:09:02;96990.25;;;2.84;100.00
4814;BME280;15375;48.540;9.268;2024-01-07T09:11:31;96973.69;;;2.78;100.00
4814;BME280;15375;48.540;9.268;2024-01-07T09:13:57;96983.28;;;2.76;100.00
4814;BME280;15375;48.540;9.268;2024-01-07T09:16:22;96971.66;;;2.65;100.00
4814;BME280;15375;48.540;9.268;2024-01-07T09:18:47;96972.06;;;2.67;100.00
4814;BME280;15375;48.540;9.268;2024-01-07T09:21:13;96987.09;;;2.75;100.00
4814;BME280;15375;48.540;9.268;2024-01-07T09:23:39;96972.34;;;2.51;100.00
4814;BME280;15375;48.540;9.268;2024-01-07T09:26:04;96971.22;;;2.55;100.00
4814;BME280;15375;48.540;9.268;2024-01-07T09:28:30;96965.31;;;2.36;100.00
4814;BME280;15375;48.540;9.268;2024-01-07T09:30:55;97016.31;;;2.69;100.00
4814;BME280;15375;48.540;9.268;2024-01-07T09:33:20;96987.78;;;2.61;100.00
4814;BME280;15375;48.540;9.268;2024-01-07T09:35:49;96984.66;;;2.55;100.00
4814;BME280;15375;48.540;9.268;2024-01-07T09:38:14;96986.22;;;2.56;100.00
4814;BME280;15375;48.540;9.268;2024-01-07T09:40:40;96969.59;;;2.44;100.00
4814;BME280;15375;48.540;9.268;2024-01-07T09:43:05;97017.84;;;2.70;100.00
4814;BME280;15375;48.540;9.268;2024-01-07T09:45:31;96993.19;;;2.65;100.00
4814;BME280;15375;48.540;9.268;2024-01-07T09:47:56;96998.13;;;2.55;100.00
4814;BME280;15375;48.540;9.268;2024-01-07T09:50:22;96985.66;;;2.37;100.00
4814;BME280;15375;48.540;9.268;2024-01-07T09:52:48;96887.97;;;1.78;100.00
4814;BME280;15375;48.540;9.268;2024-01-07T09:55:22;97016.69;;;2.68;100.00
4814;BME280;15375;48.540;9.268;2024-01-07T09:57:51;97015.41;;;2.54;100.00
4814;BME280;15375;48.540;9.268;2024-01-07T10:00:16;96931.59;;;2.05;100.00
4814;BME280;15375;48.540;9.268;2024-01-07T10:02:42;96994.50;;;2.34;100.00
4814;BME280;15375;48.540;9.268;2024-01-07T10:05:07;97011.88;;;2.47;100.00
4814;BME280;15375;48.540;9.268;2024-01-07T10:07:33;96982.19;;;2.33;100.00
4814;BME280;15375;48.540;9.268;2024-01-07T10:10:10;97019.63;;;2.52;100.00
4814;BME280;15375;48.540;9.268;2024-01-07T10:12:36;97007.66;;;2.46;100.00
4814;BME280;15375;48.540;9.268;2024-01-07T10:15:01;96983.25;;;2.25;100.00
4814;BME280;15375;48.540;9.268;2024-01-07T10:17:27;96975.16;;;2.21;100.00
4814;BME280;15375;48.540;9.268;2024-01-07T10:19:53;97003.75;;;2.36;100.00
4814;BME280;15375;48.540;9.268;2024-01-07T10:22:18;96999.78;;;2.27;100.00
4814;BME280;15375;48.540;9.268;2024-01-07T10:24:45;96974.69;;;2.09;100.00
4814;BME280;15375;48.540;9.268;2024-01-07T10:27:10;97027.22;;;2.39;100.00
4814;BME280;15375;48.540;9.268;2024-01-07T10:29:36;97024.13;;;2.37;100.00
4814;BME280;15375;48.540;9.268;2024-01-07T10:32:02;97033.50;;;2.54;100.00
4814;BME280;15375;48.540;9.268;2024-01-07T10:34:34;96977.03;;;2.17;100.00
4814;BME280;15375;48.540;9.268;2024-01-07T10:37:01;97007.97;;;2.34;100.00
4814;BME280;15375;48.540;9.268;2024-01-07T10:39:28;97020.66;;;2.37;100.00
4814;BME280;15375;48.540;9.268;2024-01-07T10:41:55;97026.38;;;2.32;100.00
4814;BME280;15375;48.540;9.268;2024-01-07T10:44:29;97003.44;;;2.05;100.00
4814;BME280;15375;48.540;9.268;2024-01-07T10:46:55;97010.03;;;2.11;100.00
4814;BME280;15375;48.540;9.268;2024-01-07T10:49:22;97035.59;;;2.31;100.00
4814;BME280;15375;48.540;9.268;2024-01-07T10:52:02;97041.75;;;2.31;100.00
4814;BME280;15375;48.540;9.268;2024-01-07T10:54:29;97015.44;;;2.11;100.00
4814;BME280;15375;48.540;9.268;2024-01-07T10:56:58;97046.75;;;2.33;100.00
4814;BME280;15375;48.540;9.268;2024-01-07T10:59:24;97013.47;;;2.08;100.00
4814;BME280;15375;48.540;9.268;2024-01-07T11:01:51;97030.50;;;2.19;100.00
4814;BME280;15375;48.540;9.268;2024-01-07T11:04:29;97041.66;;;2.24;100.00
4814;BME280;15375;48.540;9.268;2024-01-07T11:07:18;97045.91;;;2.25;100.00
4814;BME280;15375;48.540;9.268;2024-01-07T11:09:56;97019.19;;;2.03;100.00
4814;BME280;15375;48.540;9.268;2024-01-07T11:12:26;97021.41;;;1.97;100.00
4814;BME280;15375;48.540;9.268;2024-01-07T11:14:52;97021.81;;;1.99;100.00
4814;BME280;15375;48.540;9.268;2024-01-07T11:20:12;97034.53;;;2.02;100.00
4814;BME280;15375;48.540;9.268;2024-01-07T11:22:39;97029.19;;;2.06;100.00
4814;BME280;15375;48.540;9.268;2024-01-07T11:25:28;97046.25;;;2.20;100.00
4814;BME280;15375;48.540;9.268;2024-01-07T11:27:53;97039.59;;;2.07;100.00
4814;BME280;15375;48.540;9.268;2024-01-07T11:30:19;97043.84;;;2.12;100.00
4814;BME280;15375;48.540;9.268;2024-01-07T11:32:45;96976.16;;;1.66;100.00
4814;BME280;15375;48.540;9.268;2024-01-07T11:35:13;97043.78;;;2.05;100.00
4814;BME280;15375;48.540;9.268;2024-01-07T11:37:40;97051.41;;;1.99;100.00
4814;BME280;15375;48.540;9.268;2024-01-07T11:40:06;97051.38;;;1.96;100.00
4814;BME280;15375;48.540;9.268;2024-01-07T11:42:32;97046.03;;;1.99;100.00
4814;BME280;15375;48.540;9.268;2024-01-07T11:44:58;97014.22;;;1.71;100.00
4814;BME280;15375;48.540;9.268;2024-01-07T11:47:24;97035.19;;;1.88;100.00
4814;BME280;15375;48.540;9.268;2024-01-07T11:49:51;97022.75;;;1.77;100.00
4814;BME280;15375;48.540;9.268;2024-01-07T11:52:17;97049.16;;;2.05;100.00
4814;BME280;15375;48.540;9.268;2024-01-07T11:54:42;97026.69;;;1.86;100.00
4814;BME280;15375;48.540;9.268;2024-01-07T11:57:10;97033.00;;;2.01;100.00
4814;BME280;15375;48.540;9.268;2024-01-07T11:59:36;97051.13;;;2.08;100.00
4814;BME280;15375;48.540;9.268;2024-01-07T12:02:02;97047.19;;;2.02;100.00
4814;BME280;15375;48.540;9.268;2024-01-07T12:04:30;97005.47;;;1.78;100.00
4814;BME280;15375;48.540;9.268;2024-01-07T12:06:56;97043.00;;;2.04;100.00
4814;BME280;15375;48.540;9.268;2024-01-07T12:09:21;97012.75;;;1.77;100.00
4814;BME280;15375;48.540;9.268;2024-01-07T12:11:47;97029.75;;;1.85;100.00
4814;BME280;15375;48.540;9.268;2024-01-07T12:14:13;97035.19;;;1.88;100.00
4814;BME280;15375;48.540;9.268;2024-01-07T12:16:39;96999.25;;;1.70;100.00
4814;BME280;15375;48.540;9.268;2024-01-07T12:19:04;97025.06;;;1.78;100.00
4814;BME280;15375;48.540;9.268;2024-01-07T12:21:30;97037.00;;;1.81;100.00
4814;BME280;15375;48.540;9.268;2024-01-07T12:23:55;97056.75;;;1.96;100.00
4814;BME280;15375;48.540;9.268;2024-01-07T12:26:26;97030.41;;;1.75;100.00
4814;BME280;15375;48.540;9.268;2024-01-07T12:28:57;97058.28;;;1.93;100.00
4814;BME280;15375;48.540;9.268;2024-01-07T12:31:28;96999.06;;;1.56;100.00
4814;BME280;15375;48.540;9.268;2024-01-07T12:33:53;97018.00;;;1.67;100.00
4814;BME280;15375;48.540;9.268;2024-01-07T12:36:22;97013.81;;;1.69;100.00
4814;BME280;15375;48.540;9.268;2024-01-07T12:38:48;97031.13;;;1.72;100.00
4814;BME280;15375;48.540;9.268;2024-01-07T12:41:14;97043.19;;;1.85;100.00
4814;BME280;15375;48.540;9.268;2024-01-07T12:43:39;97060.97;;;1.93;100.00
4814;BME280;15375;48.540;9.268;2024-01-07T12:46:05;97049.69;;;1.80;100.00
4814;BME280;15375;48.540;9.268;2024-01-07T12:48:31;96984.66;;;1.38;100.00
4814;BME280;15375;48.540;9.268;2024-01-07T12:50:57;97006.59;;;1.44;100.00
4814;BME280;15375;48.540;9.268;2024-01-07T12:53:23;97044.75;;;1.56;100.00
4814;BME280;15375;48.540;9.268;2024-01-07T12:55:48;97066.47;;;1.70;100.00
4814;BME280;15375;48.540;9.268;2024-01-07T12:58:16;97071.44;;;1.68;100.00
4814;BME280;15375;48.540;9.268;2024-01-07T13:00:43;97073.28;;;1.64;100.00
4814;BME280;15375;48.540;9.268;2024-01-07T13:03:09;97041.84;;;1.39;100.00
4814;BME280;15375;48.540;9.268;2024-01-07T13:05:45;97033.22;;;1.26;100.00